sensor_id;sensor_type;location;lat;lon;timestamp;temperature;humidity
54576;DHT22;40472;53.486;14.542;2022-12-29T00:01:36;5.90;99.90
54576;DHT22;40472;53.486;14.542;2022-12-29T00:04:04;5.80;99.90
54576;DHT22;40472;53.486;14.542;2022-12-29T00:06:30;5.90;99.90
54576;DHT22;40472;53.486;14.542;2022-12-29T00:08:56;5.80;99.90
54576;DHT22;40472;53.486;14.542;2022-12-29T00:11:25;5.90;99.90
54576;DHT22;40472;53.486;14.542;2022-12-29T00:13:52;5.90;99.90
54576;DHT22;40472;53.486;14.542;2022-12-29T00:16:38;5.90;99.90
54576;DHT22;40472;53.486;14.542;2022-12-29T00:19:05;5.90;99.90
54576;DHT22;40472;53.486;14.542;2022-12-29T00:21:31;5.90;99.90
54576;DHT22;40472;53.486;14.542;2022-12-29T00:24:18;5.90;99.90
54576;DHT22;40472;53.486;14.542;2022-12-29T00:29:46;6.00;99.90
54576;DHT22;40472;53.486;14.542;2022-12-29T00:32:30;5.90;99.90
54576;DHT22;40472;53.486;14.542;2022-12-29T00:37:49;5.90;99.90
54576;DHT22;40472;53.486;14.542;2022-12-29T00:40:34;5.90;99.90
54576;DHT22;40472;53.486;14.542;2022-12-29T00:43:19;5.90;99.90
54576;DHT22;40472;53.486;14.542;2022-12-29T00:46:06;5.90;99.90
54576;DHT22;40472;53.486;14.542;2022-12-29T00:48:32;5.90;99.90
54576;DHT22;40472;53.486;14.542;2022-12-29T00:51:16;5.90;99.90
54576;DHT22;40472;53.486;14.542;2022-12-29T00:53:42;6.00;99.90
54576;DHT22;40472;53.486;14.542;2022-12-29T00:56:08;6.00;99.90
54576;DHT22;40472;53.486;14.542;2022-12-29T00:58:34;6.00;99.90
54576;DHT22;40472;53.486;14.542;2022-12-29T01:01:07;6.10;99.90
54576;DHT22;40472;53.486;14.542;2022-12-29T01:03:35;6.10;99.90
54576;DHT22;40472;53.486;14.542;2022-12-29T01:06:03;6.10;99.90
54576;DHT22;40472;53.486;14.542;2022-12-29T01:08:29;6.10;99.90
54576;DHT22;40472;53.486;14.542;2022-12-29T01:11:00;6.10;99.90
54576;DHT22;40472;53.486;14.542;2022-12-29T01:13:26;6.10;99.90
54576;DHT22;40472;53.486;14.542;2022-12-29T01:15:53;6.10;99.90
54576;DHT22;40472;53.486;14.542;2022-12-29T01:18:19;6.10;99.90
54576;DHT22;40472;53.486;14.542;2022-12-29T01:20:45;6.10;99.90
54576;DHT22;40472;53.486;14.542;2022-12-29T01:23:11;6.10;99.90
54576;DHT22;40472;53.486;14.542;2022-12-29T01:25:37;6.10;99.90
54576;DHT22;40472;53.486;14.542;2022-12-29T01:28:03;6.10;99.90
54576;DHT22;40472;53.486;14.542;2022-12-29T01:30:29;6.10;99.90
54576;DHT22;40472;53.486;14.542;2022-12-29T01:32:54;6.10;99.90
54576;DHT22;40472;53.486;14.542;2022-12-29T01:35:20;6.10;99.90
54576;DHT22;40472;53.486;14.542;2022-12-29T01:37:46;6.10;99.90
54576;DHT22;40472;53.486;14.542;2022-12-29T01:40:12;6.20;99.90
54576;DHT22;40472;53.486;14.542;2022-12-29T01:42:38;6.20;99.90
54576;DHT22;40472;53.486;14.542;2022-12-29T01:45:12;6.20;99.90
54576;DHT22;40472;53.486;14.542;2022-12-29T01:47:57;6.20;99.90
54576;DHT22;40472;53.486;14.542;2022-12-29T01:50:35;6.20;99.90
54576;DHT22;40472;53.486;14.542;2022-12-29T01:53:10;6.20;99.90
54576;DHT22;40472;53.486;14.542;2022-12-29T01:55:43;6.20;99.90
54576;DHT22;40472;53.486;14.542;2022-12-29T01:58:11;6.20;99.90
54576;DHT22;40472;53.486;14.542;2022-12-29T02:00:39;6.20;99.90
54576;DHT22;40472;53.486;14.542;2022-12-29T02:03:06;6.20;99.90
54576;DHT22;40472;53.486;14.542;2022-12-29T02:05:51;6.20;99.90
54576;DHT22;40472;53.486;14.542;2022-12-29T02:08:21;6.30;99.90
54576;DHT22;40472;53.486;14.542;2022-12-29T02:10:48;6.20;99.90
54576;DHT22;40472;53.486;14.542;2022-12-29T02:13:17;6.20;99.90
54576;DHT22;40472;53.486;14.542;2022-12-29T02:15:53;6.20;99.90
54576;DHT22;40472;53.486;14.542;2022-12-29T02:18:51;6.30;99.90
54576;DHT22;40472;53.486;14.542;2022-12-29T02:24:33;6.30;99.90
54576;DHT22;40472;53.486;14.542;2022-12-29T02:30:08;6.30;99.90
54576;DHT22;40472;53.486;14.542;2022-12-29T02:36:14;6.30;99.90
54576;DHT22;40472;53.486;14.542;2022-12-29T02:41:34;6.40;99.90
54576;DHT22;40472;53.486;14.542;2022-12-29T02:46:53;6.40;99.90
54576;DHT22;40472;53.486;14.542;2022-12-29T02:49:48;6.40;99.90
54576;DHT22;40472;53.486;14.542;2022-12-29T02:52:27;6.40;99.90
54576;DHT22;40472;53.486;14.542;2022-12-29T02:54:55;6.40;99.90
54576;DHT22;40472;53.486;14.542;2022-12-29T03:11:03;6.50;99.90
54576;DHT22;40472;53.486;14.542;2022-12-29T03:13:45;6.50;99.90
54576;DHT22;40472;53.486;14.542;2022-12-29T03:16:49;6.50;99.90
54576;DHT22;40472;53.486;14.542;2022-12-29T03:19:34;6.50;99.90
54576;DHT22;40472;53.486;14.542;2022-12-29T03:22:09;6.50;99.90
54576;DHT22;40472;53.486;14.542;2022-12-29T03:25:04;6.60;99.90
54576;DHT22;40472;53.486;14.542;2022-12-29T03:27:40;6.60;99.90
54576;DHT22;40472;53.486;14.542;2022-12-29T03:30:07;6.60;99.90
54576;DHT22;40472;53.486;14.542;2022-12-29T03:32:51;6.60;99.90
54576;DHT22;40472;53.486;14.542;2022-12-29T03:35:20;6.60;99.90
54576;DHT22;40472;53.486;14.542;2022-12-29T03:37:53;6.60;99.90
54576;DHT22;40472;53.486;14.542;2022-12-29T03:40:21;6.60;99.90
54576;DHT22;40472;53.486;14.542;2022-12-29T03:42:48;6.60;99.90
54576;DHT22;40472;53.486;14.542;2022-12-29T03:45:14;6.60;99.90
54576;DHT22;40472;53.486;14.542;2022-12-29T03:47:40;6.60;99.90
54576;DHT22;40472;53.486;14.542;2022-12-29T03:50:06;6.60;99.90
54576;DHT22;40472;53.486;14.542;2022-12-29T03:52:34;6.60;99.90
54576;DHT22;40472;53.486;14.542;2022-12-29T03:54:59;6.60;99.90
54576;DHT22;40472;53.486;14.542;2022-12-29T03:57:25;6.70;99.90
54576;DHT22;40472;53.486;14.542;2022-12-29T03:59:51;6.70;99.90
54576;DHT22;40472;53.486;14.542;2022-12-29T04:02:16;6.70;99.90
54576;DHT22;40472;53.486;14.542;2022-12-29T04:04:42;6.60;99.90
54576;DHT22;40472;53.486;14.542;2022-12-29T04:07:08;6.60;99.90
54576;DHT22;40472;53.486;14.542;2022-12-29T04:09:33;6.50;99.90
54576;DHT22;40472;53.486;14.542;2022-12-29T04:11:59;6.60;99.90
54576;DHT22;40472;53.486;14.542;2022-12-29T04:14:25;6.50;99.90
54576;DHT22;40472;53.486;14.542;2022-12-29T04:16:51;6.50;99.90
54576;DHT22;40472;53.486;14.542;2022-12-29T04:19:18;6.40;99.90
54576;DHT22;40472;53.486;14.542;2022-12-29T04:21:43;6.40;99.90
54576;DHT22;40472;53.486;14.542;2022-12-29T04:24:09;6.30;99.90
54576;DHT22;40472;53.486;14.542;2022-12-29T04:26:35;6.40;99.90
54576;DHT22;40472;53.486;14.542;2022-12-29T04:29:00;6.40;99.90
54576;DHT22;40472;53.486;14.542;2022-12-29T04:31:26;6.50;99.90
54576;DHT22;40472;53.486;14.542;2022-12-29T04:33:52;6.50;99.90
54576;DHT22;40472;53.486;14.542;2022-12-29T04:36:17;6.50;99.90
54576;DHT22;40472;53.486;14.542;2022-12-29T04:38:43;6.50;99.90
54576;DHT22;40472;53.486;14.542;2022-12-29T04:41:09;6.60;99.90
54576;DHT22;40472;53.486;14.542;2022-12-29T04:43:34;6.60;99.90
54576;DHT22;40472;53.486;14.542;2022-12-29T04:46:01;6.70;99.90
54576;DHT22;40472;53.486;14.542;2022-12-29T04:48:27;6.60;99.90
54576;DHT22;40472;53.486;14.542;2022-12-29T04:50:52;6.70;99.90
54576;DHT22;40472;53.486;14.542;2022-12-29T04:53:18;6.70;99.90
54576;DHT22;40472;53.486;14.542;2022-12-29T04:55:47;6.70;99.90
54576;DHT22;40472;53.486;14.542;2022-12-29T04:58:13;6.70;99.90
54576;DHT22;40472;53.486;14.542;2022-12-29T05:00:39;6.80;99.90
54576;DHT22;40472;53.486;14.542;2022-12-29T05:03:04;6.80;99.90
54576;DHT22;40472;53.486;14.542;2022-12-29T05:05:30;6.80;99.90
54576;DHT22;40472;53.486;14.542;2022-12-29T05:07:56;6.80;99.90
54576;DHT22;40472;53.486;14.542;2022-12-29T05:10:21;6.80;99.90
54576;DHT22;40472;53.486;14.542;2022-12-29T05:12:47;6.90;99.90
54576;DHT22;40472;53.486;14.542;2022-12-29T05:15:13;6.90;99.90
54576;DHT22;40472;53.486;14.542;2022-12-29T05:17:39;6.90;99.90
54576;DHT22;40472;53.486;14.542;2022-12-29T05:20:05;6.90;99.90
54576;DHT22;40472;53.486;14.542;2022-12-29T05:22:33;6.90;99.90
54576;DHT22;40472;53.486;14.542;2022-12-29T05:24:59;6.80;99.90
54576;DHT22;40472;53.486;14.542;2022-12-29T05:27:25;6.80;99.90
54576;DHT22;40472;53.486;14.542;2022-12-29T05:29:52;6.80;99.90
54576;DHT22;40472;53.486;14.542;2022-12-29T05:32:17;6.80;99.90
54576;DHT22;40472;53.486;14.542;2022-12-29T05:34:43;6.80;99.90
54576;DHT22;40472;53.486;14.542;2022-12-29T05:37:09;6.90;99.90
54576;DHT22;40472;53.486;14.542;2022-12-29T05:39:34;6.90;99.90
54576;DHT22;40472;53.486;14.542;2022-12-29T05:42:00;6.90;99.90
54576;DHT22;40472;53.486;14.542;2022-12-29T05:44:26;7.00;99.90
54576;DHT22;40472;53.486;14.542;2022-12-29T05:46:51;7.00;99.90
54576;DHT22;40472;53.486;14.542;2022-12-29T05:49:17;7.00;99.90
54576;DHT22;40472;53.486;14.542;2022-12-29T05:51:43;7.00;99.90
54576;DHT22;40472;53.486;14.542;2022-12-29T05:54:09;7.00;99.90
54576;DHT22;40472;53.486;14.542;2022-12-29T05:56:34;7.00;99.90
54576;DHT22;40472;53.486;14.542;2022-12-29T05:59:00;7.00;99.90
54576;DHT22;40472;53.486;14.542;2022-12-29T06:01:26;7.00;99.90
54576;DHT22;40472;53.486;14.542;2022-12-29T06:03:52;7.00;99.90
54576;DHT22;40472;53.486;14.542;2022-12-29T06:06:17;6.90;99.90
54576;DHT22;40472;53.486;14.542;2022-12-29T06:08:43;6.80;99.90
54576;DHT22;40472;53.486;14.542;2022-12-29T06:11:09;6.80;99.90
54576;DHT22;40472;53.486;14.542;2022-12-29T06:13:35;6.80;99.90
54576;DHT22;40472;53.486;14.542;2022-12-29T06:16:00;6.80;99.90
54576;DHT22;40472;53.486;14.542;2022-12-29T06:18:26;6.70;99.90
54576;DHT22;40472;53.486;14.542;2022-12-29T06:20:53;6.60;99.90
54576;DHT22;40472;53.486;14.542;2022-12-29T06:23:19;6.60;99.90
54576;DHT22;40472;53.486;14.542;2022-12-29T06:25:46;6.50;99.90
54576;DHT22;40472;53.486;14.542;2022-12-29T06:28:12;6.50;99.90
54576;DHT22;40472;53.486;14.542;2022-12-29T06:30:38;6.50;99.90
54576;DHT22;40472;53.486;14.542;2022-12-29T06:33:05;6.50;99.90
54576;DHT22;40472;53.486;14.542;2022-12-29T06:35:33;6.50;99.90
54576;DHT22;40472;53.486;14.542;2022-12-29T06:37:58;6.60;99.90
54576;DHT22;40472;53.486;14.542;2022-12-29T06:40:24;6.60;99.90
54576;DHT22;40472;53.486;14.542;2022-12-29T06:42:50;6.70;99.90
54576;DHT22;40472;53.486;14.542;2022-12-29T06:45:16;6.70;99.90
54576;DHT22;40472;53.486;14.542;2022-12-29T06:47:41;6.70;99.90
54576;DHT22;40472;53.486;14.542;2022-12-29T06:50:07;6.70;99.90
54576;DHT22;40472;53.486;14.542;2022-12-29T06:52:33;6.80;99.90
54576;DHT22;40472;53.486;14.542;2022-12-29T06:54:59;6.80;99.90
54576;DHT22;40472;53.486;14.542;2022-12-29T06:57:25;6.90;99.90
54576;DHT22;40472;53.486;14.542;2022-12-29T06:59:52;6.90;99.90
54576;DHT22;40472;53.486;14.542;2022-12-29T07:02:17;7.00;99.90
54576;DHT22;40472;53.486;14.542;2022-12-29T07:04:44;7.10;99.90
54576;DHT22;40472;53.486;14.542;2022-12-29T07:07:10;7.10;99.90
54576;DHT22;40472;53.486;14.542;2022-12-29T07:09:36;7.10;99.90
54576;DHT22;40472;53.486;14.542;2022-12-29T07:12:02;7.20;99.90
54576;DHT22;40472;53.486;14.542;2022-12-29T07:14:27;7.20;99.90
54576;DHT22;40472;53.486;14.542;2022-12-29T07:16:53;7.30;99.90
54576;DHT22;40472;53.486;14.542;2022-12-29T07:19:19;7.30;99.90
54576;DHT22;40472;53.486;14.542;2022-12-29T07:21:46;7.30;99.90
54576;DHT22;40472;53.486;14.542;2022-12-29T07:24:11;7.30;99.90
54576;DHT22;40472;53.486;14.542;2022-12-29T07:26:37;7.30;99.90
54576;DHT22;40472;53.486;14.542;2022-12-29T07:29:03;7.30;99.90
54576;DHT22;40472;53.486;14.542;2022-12-29T07:31:29;7.30;99.90
54576;DHT22;40472;53.486;14.542;2022-12-29T07:33:55;7.30;99.90
54576;DHT22;40472;53.486;14.542;2022-12-29T07:36:21;7.30;99.90
54576;DHT22;40472;53.486;14.542;2022-12-29T07:38:47;7.30;99.90
54576;DHT22;40472;53.486;14.542;2022-12-29T07:41:13;7.30;99.90
54576;DHT22;40472;53.486;14.542;2022-12-29T07:43:38;7.40;99.90
54576;DHT22;40472;53.486;14.542;2022-12-29T07:46:04;7.40;99.90
54576;DHT22;40472;53.486;14.542;2022-12-29T07:48:30;7.40;99.90
54576;DHT22;40472;53.486;14.542;2022-12-29T07:50:58;7.40;99.90
54576;DHT22;40472;53.486;14.542;2022-12-29T07:53:24;7.40;99.90
54576;DHT22;40472;53.486;14.542;2022-12-29T07:55:50;7.40;99.90
54576;DHT22;40472;53.486;14.542;2022-12-29T07:58:16;7.40;99.90
54576;DHT22;40472;53.486;14.542;2022-12-29T08:00:41;7.40;99.90
54576;DHT22;40472;53.486;14.542;2022-12-29T08:03:07;7.40;99.90
54576;DHT22;40472;53.486;14.542;2022-12-29T08:05:33;7.30;99.90
54576;DHT22;40472;53.486;14.542;2022-12-29T08:08:00;7.40;99.90
54576;DHT22;40472;53.486;14.542;2022-12-29T08:10:26;7.30;99.90
54576;DHT22;40472;53.486;14.542;2022-12-29T08:12:52;7.30;99.90
54576;DHT22;40472;53.486;14.542;2022-12-29T08:15:18;7.30;99.90
54576;DHT22;40472;53.486;14.542;2022-12-29T08:17:44;7.40;99.90
54576;DHT22;40472;53.486;14.542;2022-12-29T08:20:10;7.30;99.90
54576;DHT22;40472;53.486;14.542;2022-12-29T08:22:36;7.30;99.90
54576;DHT22;40472;53.486;14.542;2022-12-29T08:25:02;7.40;99.90
54576;DHT22;40472;53.486;14.542;2022-12-29T08:27:28;7.40;99.90
54576;DHT22;40472;53.486;14.542;2022-12-29T08:29:54;7.50;99.90
54576;DHT22;40472;53.486;14.542;2022-12-29T08:32:20;7.50;99.90
54576;DHT22;40472;53.486;14.542;2022-12-29T08:34:45;7.50;99.90
54576;DHT22;40472;53.486;14.542;2022-12-29T08:37:11;7.50;99.90
54576;DHT22;40472;53.486;14.542;2022-12-29T08:39:37;7.60;99.90
54576;DHT22;40472;53.486;14.542;2022-12-29T08:42:03;7.60;99.90
54576;DHT22;40472;53.486;14.542;2022-12-29T08:44:28;7.70;99.90
54576;DHT22;40472;53.486;14.542;2022-12-29T08:46:54;7.80;99.90
54576;DHT22;40472;53.486;14.542;2022-12-29T08:49:20;7.70;99.90
54576;DHT22;40472;53.486;14.542;2022-12-29T08:51:46;7.80;99.90
54576;DHT22;40472;53.486;14.542;2022-12-29T08:54:11;7.80;99.90
54576;DHT22;40472;53.486;14.542;2022-12-29T08:56:38;7.80;99.90
54576;DHT22;40472;53.486;14.542;2022-12-29T08:59:03;7.90;99.90
54576;DHT22;40472;53.486;14.542;2022-12-29T09:01:29;7.90;99.90
54576;DHT22;40472;53.486;14.542;2022-12-29T09:03:56;8.00;99.90
54576;DHT22;40472;53.486;14.542;2022-12-29T09:06:21;8.00;99.90
54576;DHT22;40472;53.486;14.542;2022-12-29T09:08:47;8.00;99.90
54576;DHT22;40472;53.486;14.542;2022-12-29T09:11:19;8.10;99.90
54576;DHT22;40472;53.486;14.542;2022-12-29T09:13:46;8.20;99.90
54576;DHT22;40472;53.486;14.542;2022-12-29T09:16:12;8.30;99.90
54576;DHT22;40472;53.486;14.542;2022-12-29T09:18:38;8.50;99.90
54576;DHT22;40472;53.486;14.542;2022-12-29T09:21:05;8.50;99.90
54576;DHT22;40472;53.486;14.542;2022-12-29T09:23:32;8.60;99.90
54576;DHT22;40472;53.486;14.542;2022-12-29T09:25:57;8.70;99.90
54576;DHT22;40472;53.486;14.542;2022-12-29T09:28:23;8.80;99.90
54576;DHT22;40472;53.486;14.542;2022-12-29T09:30:50;8.90;99.90
54576;DHT22;40472;53.486;14.542;2022-12-29T09:33:16;9.00;99.90
54576;DHT22;40472;53.486;14.542;2022-12-29T09:35:45;8.90;99.90
54576;DHT22;40472;53.486;14.542;2022-12-29T09:38:15;8.90;99.90
54576;DHT22;40472;53.486;14.542;2022-12-29T09:40:41;8.90;99.90
54576;DHT22;40472;53.486;14.542;2022-12-29T09:48:44;8.80;99.90
54576;DHT22;40472;53.486;14.542;2022-12-29T09:51:14;8.90;99.90
54576;DHT22;40472;53.486;14.542;2022-12-29T09:53:43;8.90;99.90
54576;DHT22;40472;53.486;14.542;2022-12-29T09:56:17;9.00;99.90
54576;DHT22;40472;53.486;14.542;2022-12-29T10:01:28;9.10;99.90
54576;DHT22;40472;53.486;14.542;2022-12-29T10:03:57;9.30;99.90
54576;DHT22;40472;53.486;14.542;2022-12-29T10:06:32;9.30;99.90
54576;DHT22;40472;53.486;14.542;2022-12-29T10:12:25;9.60;99.90
54576;DHT22;40472;53.486;14.542;2022-12-29T10:20:30;9.70;99.90
54576;DHT22;40472;53.486;14.542;2022-12-29T10:23:31;9.70;99.90
54576;DHT22;40472;53.486;14.542;2022-12-29T10:26:01;9.70;99.90
54576;DHT22;40472;53.486;14.542;2022-12-29T10:28:40;9.70;99.90
54576;DHT22;40472;53.486;14.542;2022-12-29T10:31:22;9.70;99.90
54576;DHT22;40472;53.486;14.542;2022-12-29T10:33:57;9.80;99.90
54576;DHT22;40472;53.486;14.542;2022-12-29T10:36:34;9.80;99.90
54576;DHT22;40472;53.486;14.542;2022-12-29T10:41:41;10.00;99.90
54576;DHT22;40472;53.486;14.542;2022-12-29T10:44:12;10.10;99.90
54576;DHT22;40472;53.486;14.542;2022-12-29T10:46:39;10.10;99.90
54576;DHT22;40472;53.486;14.542;2022-12-29T10:49:08;10.10;99.90
54576;DHT22;40472;53.486;14.542;2022-12-29T10:51:39;10.10;99.90
54576;DHT22;40472;53.486;14.542;2022-12-29T10:54:38;10.20;99.90
54576;DHT22;40472;53.486;14.542;2022-12-29T10:57:11;10.20;99.90
54576;DHT22;40472;53.486;14.542;2022-12-29T10:59:40;10.10;99.90
54576;DHT22;40472;53.486;14.542;2022-12-29T11:05:00;10.20;99.90
54576;DHT22;40472;53.486;14.542;2022-12-29T11:07:30;10.20;99.90
54576;DHT22;40472;53.486;14.542;2022-12-29T11:12:56;10.20;99.90
54576;DHT22;40472;53.486;14.542;2022-12-29T11:15:22;10.10;99.90
54576;DHT22;40472;53.486;14.542;2022-12-29T11:17:53;10.10;99.90
54576;DHT22;40472;53.486;14.542;2022-12-29T11:20:35;10.10;99.90
54576;DHT22;40472;53.486;14.542;2022-12-29T11:23:04;10.10;99.90
54576;DHT22;40472;53.486;14.542;2022-12-29T11:25:30;10.10;99.90
54576;DHT22;40472;53.486;14.542;2022-12-29T11:28:02;10.20;99.90
54576;DHT22;40472;53.486;14.542;2022-12-29T11:30:30;10.20;99.90
54576;DHT22;40472;53.486;14.542;2022-12-29T11:32:57;10.20;99.90
54576;DHT22;40472;53.486;14.542;2022-12-29T11:35:43;10.30;99.90
54576;DHT22;40472;53.486;14.542;2022-12-29T11:38:56;10.30;99.90
54576;DHT22;40472;53.486;14.542;2022-12-29T11:41:29;10.40;99.90
54576;DHT22;40472;53.486;14.542;2022-12-29T11:44:04;10.50;99.90
54576;DHT22;40472;53.486;14.542;2022-12-29T11:46:36;10.40;99.90
54576;DHT22;40472;53.486;14.542;2022-12-29T11:49:03;10.40;99.90
54576;DHT22;40472;53.486;14.542;2022-12-29T11:51:39;10.40;99.90
54576;DHT22;40472;53.486;14.542;2022-12-29T11:54:22;10.50;99.90
54576;DHT22;40472;53.486;14.542;2022-12-29T11:56:50;10.50;99.90
54576;DHT22;40472;53.486;14.542;2022-12-29T12:01:57;10.50;99.90
54576;DHT22;40472;53.486;14.542;2022-12-29T12:04:27;10.70;99.90
54576;DHT22;40472;53.486;14.542;2022-12-29T12:10:03;10.90;99.90
54576;DHT22;40472;53.486;14.542;2022-12-29T12:14:59;10.70;99.90
54576;DHT22;40472;53.486;14.542;2022-12-29T12:17:36;10.70;99.90
54576;DHT22;40472;53.486;14.542;2022-12-29T12:28:54;10.80;99.90
54576;DHT22;40472;53.486;14.542;2022-12-29T12:31:47;10.70;99.90
54576;DHT22;40472;53.486;14.542;2022-12-29T12:42:13;10.80;99.90
54576;DHT22;40472;53.486;14.542;2022-12-29T12:47:24;10.50;99.90
54576;DHT22;40472;53.486;14.542;2022-12-29T12:53:31;10.10;99.90
54576;DHT22;40472;53.486;14.542;2022-12-29T13:02:48;9.70;99.90
54576;DHT22;40472;53.486;14.542;2022-12-29T13:17:27;9.20;99.90
54576;DHT22;40472;53.486;14.542;2022-12-29T13:20:12;9.20;99.90
54576;DHT22;40472;53.486;14.542;2022-12-29T13:28:09;9.10;99.90
54576;DHT22;40472;53.486;14.542;2022-12-29T13:30:45;9.10;99.90
54576;DHT22;40472;53.486;14.542;2022-12-29T13:44:05;9.10;99.90
54576;DHT22;40472;53.486;14.542;2022-12-29T13:46:40;9.10;99.90
54576;DHT22;40472;53.486;14.542;2022-12-29T13:54:38;9.10;99.90
54576;DHT22;40472;53.486;14.542;2022-12-29T13:57:52;9.10;99.90
54576;DHT22;40472;53.486;14.542;2022-12-29T14:00:19;9.10;99.90
54576;DHT22;40472;53.486;14.542;2022-12-29T14:07:46;8.90;99.90
54576;DHT22;40472;53.486;14.542;2022-12-29T14:10:35;8.90;99.90
54576;DHT22;40472;53.486;14.542;2022-12-29T14:13:13;8.80;99.90
54576;DHT22;40472;53.486;14.542;2022-12-29T14:15:42;8.80;99.90
54576;DHT22;40472;53.486;14.542;2022-12-29T14:23:50;8.80;99.90
54576;DHT22;40472;53.486;14.542;2022-12-29T14:31:53;8.80;99.90
54576;DHT22;40472;53.486;14.542;2022-12-29T14:34:30;8.70;99.90
54576;DHT22;40472;53.486;14.542;2022-12-29T14:37:03;8.70;99.90
54576;DHT22;40472;53.486;14.542;2022-12-29T14:39:43;8.60;99.90
54576;DHT22;40472;53.486;14.542;2022-12-29T14:52:32;8.50;99.90
54576;DHT22;40472;53.486;14.542;2022-12-29T14:57:41;8.40;99.90
54576;DHT22;40472;53.486;14.542;2022-12-29T15:00:29;8.30;99.90
54576;DHT22;40472;53.486;14.542;2022-12-29T15:03:06;8.20;99.90
54576;DHT22;40472;53.486;14.542;2022-12-29T15:08:04;8.20;99.90
54576;DHT22;40472;53.486;14.542;2022-12-29T15:10:45;8.20;99.90
54576;DHT22;40472;53.486;14.542;2022-12-29T15:13:20;8.20;99.90
54576;DHT22;40472;53.486;14.542;2022-12-29T15:15:46;8.10;99.90
54576;DHT22;40472;53.486;14.542;2022-12-29T15:21:16;8.00;99.90
54576;DHT22;40472;53.486;14.542;2022-12-29T15:23:44;8.00;99.90
54576;DHT22;40472;53.486;14.542;2022-12-29T15:26:11;7.90;99.90
54576;DHT22;40472;53.486;14.542;2022-12-29T15:28:43;7.80;99.90
54576;DHT22;40472;53.486;14.542;2022-12-29T15:31:21;7.80;99.90
54576;DHT22;40472;53.486;14.542;2022-12-29T15:34:02;7.70;99.90
54576;DHT22;40472;53.486;14.542;2022-12-29T15:36:29;7.70;99.90
54576;DHT22;40472;53.486;14.542;2022-12-29T15:38:55;7.60;99.90
54576;DHT22;40472;53.486;14.542;2022-12-29T15:44:16;7.60;99.90
54576;DHT22;40472;53.486;14.542;2022-12-29T15:46:43;7.60;99.90
54576;DHT22;40472;53.486;14.542;2022-12-29T15:49:14;7.60;99.90
54576;DHT22;40472;53.486;14.542;2022-12-29T15:51:40;7.60;99.90
54576;DHT22;40472;53.486;14.542;2022-12-29T15:54:18;7.60;99.90
54576;DHT22;40472;53.486;14.542;2022-12-29T15:56:45;7.60;99.90
54576;DHT22;40472;53.486;14.542;2022-12-29T15:59:24;7.60;99.90
54576;DHT22;40472;53.486;14.542;2022-12-29T16:01:50;7.60;99.90
54576;DHT22;40472;53.486;14.542;2022-12-29T16:04:16;7.50;99.90
54576;DHT22;40472;53.486;14.542;2022-12-29T16:06:58;7.60;99.90
54576;DHT22;40472;53.486;14.542;2022-12-29T16:12:03;7.70;99.90
54576;DHT22;40472;53.486;14.542;2022-12-29T16:14:48;7.70;99.90
54576;DHT22;40472;53.486;14.542;2022-12-29T16:17:18;7.60;99.90
54576;DHT22;40472;53.486;14.542;2022-12-29T16:19:57;7.60;99.90
54576;DHT22;40472;53.486;14.542;2022-12-29T16:24:59;7.50;99.90
54576;DHT22;40472;53.486;14.542;2022-12-29T16:27:38;7.50;99.90
54576;DHT22;40472;53.486;14.542;2022-12-29T16:30:28;7.50;99.90
54576;DHT22;40472;53.486;14.542;2022-12-29T16:32:57;7.60;99.90
54576;DHT22;40472;53.486;14.542;2022-12-29T16:47:39;7.60;99.90
54576;DHT22;40472;53.486;14.542;2022-12-29T16:56:54;7.60;99.90
54576;DHT22;40472;53.486;14.542;2022-12-29T16:59:51;7.60;99.90
54576;DHT22;40472;53.486;14.542;2022-12-29T17:02:36;7.60;99.90
54576;DHT22;40472;53.486;14.542;2022-12-29T17:05:13;7.60;99.90
54576;DHT22;40472;53.486;14.542;2022-12-29T17:07:39;7.50;99.90
54576;DHT22;40472;53.486;14.542;2022-12-29T17:10:08;7.50;99.90
54576;DHT22;40472;53.486;14.542;2022-12-29T17:12:43;7.50;99.90
54576;DHT22;40472;53.486;14.542;2022-12-29T17:15:24;7.50;99.90
54576;DHT22;40472;53.486;14.542;2022-12-29T17:17:53;7.50;99.90
54576;DHT22;40472;53.486;14.542;2022-12-29T17:20:25;7.50;99.90
54576;DHT22;40472;53.486;14.542;2022-12-29T17:22:53;7.50;99.90
54576;DHT22;40472;53.486;14.542;2022-12-29T17:25:33;7.50;99.90
54576;DHT22;40472;53.486;14.542;2022-12-29T17:28:05;7.50;99.90
54576;DHT22;40472;53.486;14.542;2022-12-29T17:30:37;7.50;99.90
54576;DHT22;40472;53.486;14.542;2022-12-29T17:33:11;7.50;99.90
54576;DHT22;40472;53.486;14.542;2022-12-29T17:35:39;7.50;99.90
54576;DHT22;40472;53.486;14.542;2022-12-29T17:38:22;7.50;99.90
54576;DHT22;40472;53.486;14.542;2022-12-29T17:40:49;7.40;99.90
54576;DHT22;40472;53.486;14.542;2022-12-29T17:43:17;7.40;99.90
54576;DHT22;40472;53.486;14.542;2022-12-29T17:45:48;7.40;99.90
54576;DHT22;40472;53.486;14.542;2022-12-29T17:48:17;7.40;99.90
54576;DHT22;40472;53.486;14.542;2022-12-29T17:50:45;7.40;99.90
54576;DHT22;40472;53.486;14.542;2022-12-29T17:53:14;7.40;99.90
54576;DHT22;40472;53.486;14.542;2022-12-29T17:55:42;7.50;99.90
54576;DHT22;40472;53.486;14.542;2022-12-29T17:58:21;7.50;99.90
54576;DHT22;40472;53.486;14.542;2022-12-29T18:00:53;7.50;99.90
54576;DHT22;40472;53.486;14.542;2022-12-29T18:03:40;7.50;99.90
54576;DHT22;40472;53.486;14.542;2022-12-29T18:06:08;7.50;99.90
54576;DHT22;40472;53.486;14.542;2022-12-29T18:08:37;7.60;99.90
54576;DHT22;40472;53.486;14.542;2022-12-29T18:11:05;7.60;99.90
54576;DHT22;40472;53.486;14.542;2022-12-29T18:13:32;7.70;99.90
54576;DHT22;40472;53.486;14.542;2022-12-29T18:16:00;7.80;99.90
54576;DHT22;40472;53.486;14.542;2022-12-29T18:18:28;7.80;99.90
54576;DHT22;40472;53.486;14.542;2022-12-29T18:20:57;7.80;99.90
54576;DHT22;40472;53.486;14.542;2022-12-29T18:23:29;7.80;99.90
54576;DHT22;40472;53.486;14.542;2022-12-29T18:28:26;7.80;99.90
54576;DHT22;40472;53.486;14.542;2022-12-29T18:30:55;7.70;99.90
54576;DHT22;40472;53.486;14.542;2022-12-29T18:33:21;7.70;99.90
54576;DHT22;40472;53.486;14.542;2022-12-29T18:36:03;7.70;99.90
54576;DHT22;40472;53.486;14.542;2022-12-29T18:38:30;7.80;99.90
54576;DHT22;40472;53.486;14.542;2022-12-29T18:40:57;7.70;99.90
54576;DHT22;40472;53.486;14.542;2022-12-29T18:43:23;7.60;99.90
54576;DHT22;40472;53.486;14.542;2022-12-29T18:45:49;7.60;99.90
54576;DHT22;40472;53.486;14.542;2022-12-29T18:48:17;7.60;99.90
54576;DHT22;40472;53.486;14.542;2022-12-29T18:50:44;7.70;99.90
54576;DHT22;40472;53.486;14.542;2022-12-29T18:53:23;7.60;99.90
54576;DHT22;40472;53.486;14.542;2022-12-29T18:55:53;7.60;99.90
54576;DHT22;40472;53.486;14.542;2022-12-29T18:58:19;7.70;99.90
54576;DHT22;40472;53.486;14.542;2022-12-29T19:00:45;7.70;99.90
54576;DHT22;40472;53.486;14.542;2022-12-29T19:03:12;7.70;99.90
54576;DHT22;40472;53.486;14.542;2022-12-29T19:05:41;7.70;99.90